sensor_id;sensor_type;location;lat;lon;timestamp;P1;durP1;ratioP1;P2;durP2;ratioP2
68238;SDS011;55056;47.792;8.724;2022-10-18T00:01:45;5.40;;;2.73;;
68238;SDS011;55056;47.792;8.724;2022-10-18T00:04:11;5.30;;;2.80;;
68238;SDS011;55056;47.792;8.724;2022-10-18T00:06:36;5.10;;;2.80;;
68238;SDS011;55056;47.792;8.724;2022-10-18T00:09:02;5.90;;;2.80;;
68238;SDS011;55056;47.792;8.724;2022-10-18T00:11:28;5.20;;;2.70;;
68238;SDS011;55056;47.792;8.724;2022-10-18T00:13:54;5.30;;;2.70;;
68238;SDS011;55056;47.792;8.724;2022-10-18T00:16:20;5.18;;;2.70;;
68238;SDS011;55056;47.792;8.724;2022-10-18T00:18:45;5.13;;;2.70;;
68238;SDS011;55056;47.792;8.724;2022-10-18T00:21:22;4.93;;;2.70;;
68238;SDS011;55056;47.792;8.724;2022-10-18T00:23:48;5.90;;;2.80;;
68238;SDS011;55056;47.792;8.724;2022-10-18T00:26:15;5.88;;;2.70;;
68238;SDS011;55056;47.792;8.724;2022-10-18T00:28:41;6.03;;;2.75;;
68238;SDS011;55056;47.792;8.724;2022-10-18T00:31:16;5.20;;;2.60;;
68238;SDS011;55056;47.792;8.724;2022-10-18T00:33:48;5.93;;;2.80;;
68238;SDS011;55056;47.792;8.724;2022-10-18T00:36:13;5.90;;;2.70;;
68238;SDS011;55056;47.792;8.724;2022-10-18T00:38:39;5.60;;;2.80;;
68238;SDS011;55056;47.792;8.724;2022-10-18T00:41:06;5.15;;;2.53;;
68238;SDS011;55056;47.792;8.724;2022-10-18T00:43:31;5.13;;;2.80;;
68238;SDS011;55056;47.792;8.724;2022-10-18T00:45:57;5.30;;;2.60;;
68238;SDS011;55056;47.792;8.724;2022-10-18T00:48:22;4.83;;;2.60;;
68238;SDS011;55056;47.792;8.724;2022-10-18T00:50:48;5.67;;;2.70;;
68238;SDS011;55056;47.792;8.724;2022-10-18T00:53:15;5.00;;;2.63;;
68238;SDS011;55056;47.792;8.724;2022-10-18T00:55:47;5.25;;;2.70;;
68238;SDS011;55056;47.792;8.724;2022-10-18T00:58:14;5.25;;;2.50;;
68238;SDS011;55056;47.792;8.724;2022-10-18T01:00:41;5.47;;;2.80;;
68238;SDS011;55056;47.792;8.724;2022-10-18T01:03:07;4.63;;;2.40;;
68238;SDS011;55056;47.792;8.724;2022-10-18T01:05:33;5.57;;;2.70;;
68238;SDS011;55056;47.792;8.724;2022-10-18T01:08:19;5.05;;;2.17;;
68238;SDS011;55056;47.792;8.724;2022-10-18T01:18:20;5.60;;;2.67;;
68238;SDS011;55056;47.792;8.724;2022-10-18T01:23:39;5.15;;;2.58;;
68238;SDS011;55056;47.792;8.724;2022-10-18T01:31:09;5.03;;;2.72;;
68238;SDS011;55056;47.792;8.724;2022-10-18T01:33:45;5.40;;;2.50;;
68238;SDS011;55056;47.792;8.724;2022-10-18T01:36:16;5.18;;;2.58;;
68238;SDS011;55056;47.792;8.724;2022-10-18T01:38:44;4.73;;;2.50;;
68238;SDS011;55056;47.792;8.724;2022-10-18T01:41:11;5.10;;;2.42;;
68238;SDS011;55056;47.792;8.724;2022-10-18T01:43:37;4.63;;;2.50;;
68238;SDS011;55056;47.792;8.724;2022-10-18T01:46:04;4.90;;;2.60;;
68238;SDS011;55056;47.792;8.724;2022-10-18T01:48:32;5.00;;;2.50;;
68238;SDS011;55056;47.792;8.724;2022-10-18T01:50:58;4.78;;;2.40;;
68238;SDS011;55056;47.792;8.724;2022-10-18T01:53:24;4.63;;;2.40;;
68238;SDS011;55056;47.792;8.724;2022-10-18T01:58:50;5.00;;;2.47;;
68238;SDS011;55056;47.792;8.724;2022-10-18T02:02:00;5.20;;;2.58;;
68238;SDS011;55056;47.792;8.724;2022-10-18T02:04:13;4.30;;;2.40;;
68238;SDS011;55056;47.792;8.724;2022-10-18T02:06:42;4.82;;;2.45;;
68238;SDS011;55056;47.792;8.724;2022-10-18T02:11:35;4.67;;;2.27;;
68238;SDS011;55056;47.792;8.724;2022-10-18T02:14:06;4.68;;;2.50;;
68238;SDS011;55056;47.792;8.724;2022-10-18T02:16:43;4.70;;;2.60;;
68238;SDS011;55056;47.792;8.724;2022-10-18T02:19:12;4.88;;;2.42;;
68238;SDS011;55056;47.792;8.724;2022-10-18T02:21:40;4.47;;;2.13;;
68238;SDS011;55056;47.792;8.724;2022-10-18T02:24:06;6.15;;;2.40;;
68238;SDS011;55056;47.792;8.724;2022-10-18T02:26:32;4.70;;;2.40;;
68238;SDS011;55056;47.792;8.724;2022-10-18T02:28:57;5.10;;;2.40;;
68238;SDS011;55056;47.792;8.724;2022-10-18T02:31:28;5.20;;;2.40;;
68238;SDS011;55056;47.792;8.724;2022-10-18T02:34:03;4.57;;;2.30;;
68238;SDS011;55056;47.792;8.724;2022-10-18T02:36:32;4.85;;;2.20;;
68238;SDS011;55056;47.792;8.724;2022-10-18T02:39:05;4.70;;;2.40;;
68238;SDS011;55056;47.792;8.724;2022-10-18T02:41:32;4.72;;;2.30;;
68238;SDS011;55056;47.792;8.724;2022-10-18T02:43:57;4.35;;;2.10;;
68238;SDS011;55056;47.792;8.724;2022-10-18T02:46:23;5.17;;;2.20;;
68238;SDS011;55056;47.792;8.724;2022-10-18T02:48:49;4.47;;;2.30;;
68238;SDS011;55056;47.792;8.724;2022-10-18T02:51:14;4.57;;;2.40;;
68238;SDS011;55056;47.792;8.724;2022-10-18T02:53:40;4.00;;;2.10;;
68238;SDS011;55056;47.792;8.724;2022-10-18T02:56:05;4.47;;;2.27;;
68238;SDS011;55056;47.792;8.724;2022-10-18T02:58:31;5.10;;;2.30;;
68238;SDS011;55056;47.792;8.724;2022-10-18T03:00:56;4.37;;;2.27;;
68238;SDS011;55056;47.792;8.724;2022-10-18T03:03:21;4.40;;;2.20;;
68238;SDS011;55056;47.792;8.724;2022-10-18T03:05:50;4.77;;;2.30;;
68238;SDS011;55056;47.792;8.724;2022-10-18T03:08:16;4.27;;;2.03;;
68238;SDS011;55056;47.792;8.724;2022-10-18T03:10:44;5.07;;;2.40;;
68238;SDS011;55056;47.792;8.724;2022-10-18T03:13:10;4.78;;;2.53;;
68238;SDS011;55056;47.792;8.724;2022-10-18T03:15:36;4.53;;;2.40;;
68238;SDS011;55056;47.792;8.724;2022-10-18T03:18:01;4.47;;;2.50;;
68238;SDS011;55056;47.792;8.724;2022-10-18T03:20:27;5.23;;;2.50;;
68238;SDS011;55056;47.792;8.724;2022-10-18T03:22:53;4.77;;;2.30;;
68238;SDS011;55056;47.792;8.724;2022-10-18T03:25:19;4.38;;;2.10;;
68238;SDS011;55056;47.792;8.724;2022-10-18T03:27:45;4.70;;;2.10;;
68238;SDS011;55056;47.792;8.724;2022-10-18T03:30:10;4.23;;;2.20;;
68238;SDS011;55056;47.792;8.724;2022-10-18T03:32:36;6.70;;;3.33;;
68238;SDS011;55056;47.792;8.724;2022-10-18T03:35:02;7.53;;;4.03;;
68238;SDS011;55056;47.792;8.724;2022-10-18T03:37:27;5.83;;;3.20;;
68238;SDS011;55056;47.792;8.724;2022-10-18T03:39:53;6.20;;;3.20;;
68238;SDS011;55056;47.792;8.724;2022-10-18T03:42:18;5.47;;;2.40;;
68238;SDS011;55056;47.792;8.724;2022-10-18T03:44:44;5.63;;;2.40;;
68238;SDS011;55056;47.792;8.724;2022-10-18T03:47:09;4.53;;;2.20;;
68238;SDS011;55056;47.792;8.724;2022-10-18T03:49:36;6.40;;;2.00;;
68238;SDS011;55056;47.792;8.724;2022-10-18T03:52:01;4.40;;;2.30;;
68238;SDS011;55056;47.792;8.724;2022-10-18T03:54:29;4.50;;;2.20;;
68238;SDS011;55056;47.792;8.724;2022-10-18T03:56:55;4.40;;;2.20;;
68238;SDS011;55056;47.792;8.724;2022-10-18T03:59:20;4.70;;;2.00;;
68238;SDS011;55056;47.792;8.724;2022-10-18T04:01:47;4.75;;;2.20;;
68238;SDS011;55056;47.792;8.724;2022-10-18T04:04:12;4.60;;;2.20;;
68238;SDS011;55056;47.792;8.724;2022-10-18T04:06:38;5.07;;;2.30;;
68238;SDS011;55056;47.792;8.724;2022-10-18T04:09:03;4.00;;;2.10;;
68238;SDS011;55056;47.792;8.724;2022-10-18T04:11:29;4.40;;;2.30;;
68238;SDS011;55056;47.792;8.724;2022-10-18T04:13:55;4.33;;;2.23;;
68238;SDS011;55056;47.792;8.724;2022-10-18T04:16:20;4.93;;;2.43;;
68238;SDS011;55056;47.792;8.724;2022-10-18T04:18:45;4.40;;;2.40;;
68238;SDS011;55056;47.792;8.724;2022-10-18T04:21:11;4.37;;;2.23;;
68238;SDS011;55056;47.792;8.724;2022-10-18T04:23:36;4.67;;;2.10;;
68238;SDS011;55056;47.792;8.724;2022-10-18T04:26:02;4.40;;;2.10;;
68238;SDS011;55056;47.792;8.724;2022-10-18T04:28:27;4.23;;;2.13;;
68238;SDS011;55056;47.792;8.724;2022-10-18T04:30:52;4.30;;;2.10;;
68238;SDS011;55056;47.792;8.724;2022-10-18T04:33:18;4.53;;;2.10;;
68238;SDS011;55056;47.792;8.724;2022-10-18T04:35:44;4.80;;;2.20;;
68238;SDS011;55056;47.792;8.724;2022-10-18T04:38:10;4.50;;;2.03;;
68238;SDS011;55056;47.792;8.724;2022-10-18T04:40:35;4.23;;;2.07;;
68238;SDS011;55056;47.792;8.724;2022-10-18T04:43:01;4.15;;;2.15;;
68238;SDS011;55056;47.792;8.724;2022-10-18T04:45:27;4.43;;;2.30;;
68238;SDS011;55056;47.792;8.724;2022-10-18T04:47:52;6.63;;;2.20;;
68238;SDS011;55056;47.792;8.724;2022-10-18T04:50:17;4.00;;;2.00;;
68238;SDS011;55056;47.792;8.724;2022-10-18T04:52:43;4.50;;;2.10;;
68238;SDS011;55056;47.792;8.724;2022-10-18T04:55:08;4.27;;;2.10;;
68238;SDS011;55056;47.792;8.724;2022-10-18T04:57:34;4.50;;;2.00;;
68238;SDS011;55056;47.792;8.724;2022-10-18T04:59:59;4.50;;;2.07;;
68238;SDS011;55056;47.792;8.724;2022-10-18T05:02:25;4.10;;;2.10;;
68238;SDS011;55056;47.792;8.724;2022-10-18T05:04:50;4.23;;;2.00;;
68238;SDS011;55056;47.792;8.724;2022-10-18T05:07:16;4.00;;;1.93;;
68238;SDS011;55056;47.792;8.724;2022-10-18T05:09:42;4.22;;;2.10;;
68238;SDS011;55056;47.792;8.724;2022-10-18T05:12:07;4.00;;;1.90;;
68238;SDS011;55056;47.792;8.724;2022-10-18T05:14:32;4.57;;;2.00;;
68238;SDS011;55056;47.792;8.724;2022-10-18T05:16:58;4.30;;;2.10;;
68238;SDS011;55056;47.792;8.724;2022-10-18T05:19:24;4.73;;;2.00;;
68238;SDS011;55056;47.792;8.724;2022-10-18T05:21:49;5.37;;;2.20;;
68238;SDS011;55056;47.792;8.724;2022-10-18T05:24:15;4.63;;;2.00;;
68238;SDS011;55056;47.792;8.724;2022-10-18T05:26:40;4.63;;;1.90;;
68238;SDS011;55056;47.792;8.724;2022-10-18T05:29:06;5.03;;;1.90;;
68238;SDS011;55056;47.792;8.724;2022-10-18T05:31:31;4.50;;;1.90;;
68238;SDS011;55056;47.792;8.724;2022-10-18T05:33:57;4.67;;;2.20;;
68238;SDS011;55056;47.792;8.724;2022-10-18T05:36:22;5.10;;;2.03;;
68238;SDS011;55056;47.792;8.724;2022-10-18T05:38:50;4.88;;;2.20;;
68238;SDS011;55056;47.792;8.724;2022-10-18T05:41:16;4.90;;;2.10;;
68238;SDS011;55056;47.792;8.724;2022-10-18T05:43:42;5.93;;;2.13;;
68238;SDS011;55056;47.792;8.724;2022-10-18T05:46:08;4.47;;;2.00;;
68238;SDS011;55056;47.792;8.724;2022-10-18T05:48:33;4.50;;;1.87;;
68238;SDS011;55056;47.792;8.724;2022-10-18T05:50:59;7.67;;;2.27;;
68238;SDS011;55056;47.792;8.724;2022-10-18T05:53:25;5.07;;;2.20;;
68238;SDS011;55056;47.792;8.724;2022-10-18T05:55:50;7.33;;;4.00;;
68238;SDS011;55056;47.792;8.724;2022-10-18T05:58:16;7.77;;;4.33;;
68238;SDS011;55056;47.792;8.724;2022-10-18T06:00:41;8.57;;;4.60;;
68238;SDS011;55056;47.792;8.724;2022-10-18T06:03:06;8.97;;;4.50;;
68238;SDS011;55056;47.792;8.724;2022-10-18T06:05:32;9.10;;;4.57;;
68238;SDS011;55056;47.792;8.724;2022-10-18T06:07:57;6.37;;;3.73;;
68238;SDS011;55056;47.792;8.724;2022-10-18T06:10:23;7.50;;;3.50;;
68238;SDS011;55056;47.792;8.724;2022-10-18T06:12:48;11.10;;;3.80;;
68238;SDS011;55056;47.792;8.724;2022-10-18T06:15:14;6.25;;;3.50;;
68238;SDS011;55056;47.792;8.724;2022-10-18T06:17:40;7.67;;;3.60;;
68238;SDS011;55056;47.792;8.724;2022-10-18T06:20:05;7.17;;;3.57;;
68238;SDS011;55056;47.792;8.724;2022-10-18T06:22:31;6.90;;;3.20;;
68238;SDS011;55056;47.792;8.724;2022-10-18T06:24:57;7.30;;;3.20;;
68238;SDS011;55056;47.792;8.724;2022-10-18T06:27:26;7.55;;;3.40;;
68238;SDS011;55056;47.792;8.724;2022-10-18T06:29:52;8.33;;;3.67;;
68238;SDS011;55056;47.792;8.724;2022-10-18T06:32:20;7.83;;;3.47;;
68238;SDS011;55056;47.792;8.724;2022-10-18T06:34:46;12.37;;;5.57;;
68238;SDS011;55056;47.792;8.724;2022-10-18T06:37:11;10.20;;;4.63;;
68238;SDS011;55056;47.792;8.724;2022-10-18T06:39:37;7.13;;;3.50;;
68238;SDS011;55056;47.792;8.724;2022-10-18T06:42:02;7.27;;;3.40;;
68238;SDS011;55056;47.792;8.724;2022-10-18T06:44:32;7.60;;;3.63;;
68238;SDS011;55056;47.792;8.724;2022-10-18T06:46:57;7.80;;;3.30;;
68238;SDS011;55056;47.792;8.724;2022-10-18T06:49:23;6.43;;;2.97;;
68238;SDS011;55056;47.792;8.724;2022-10-18T06:51:48;7.17;;;3.20;;
68238;SDS011;55056;47.792;8.724;2022-10-18T06:54:14;8.07;;;3.00;;
68238;SDS011;55056;47.792;8.724;2022-10-18T06:56:39;8.80;;;4.00;;
68238;SDS011;55056;47.792;8.724;2022-10-18T06:59:05;9.87;;;4.23;;
68238;SDS011;55056;47.792;8.724;2022-10-18T07:01:30;9.97;;;4.00;;
68238;SDS011;55056;47.792;8.724;2022-10-18T07:03:56;11.87;;;4.50;;
68238;SDS011;55056;47.792;8.724;2022-10-18T07:06:21;11.93;;;4.40;;
68238;SDS011;55056;47.792;8.724;2022-10-18T07:08:52;13.60;;;6.15;;
68238;SDS011;55056;47.792;8.724;2022-10-18T07:11:19;14.47;;;6.10;;
68238;SDS011;55056;47.792;8.724;2022-10-18T07:13:45;13.13;;;5.68;;
68238;SDS011;55056;47.792;8.724;2022-10-18T07:16:11;10.33;;;5.03;;
68238;SDS011;55056;47.792;8.724;2022-10-18T07:18:38;11.10;;;4.55;;
68238;SDS011;55056;47.792;8.724;2022-10-18T07:21:04;9.43;;;4.38;;
68238;SDS011;55056;47.792;8.724;2022-10-18T07:23:32;8.98;;;4.30;;
68238;SDS011;55056;47.792;8.724;2022-10-18T07:25:58;9.80;;;4.60;;
68238;SDS011;55056;47.792;8.724;2022-10-18T07:28:25;7.60;;;4.07;;
68238;SDS011;55056;47.792;8.724;2022-10-18T07:30:51;8.50;;;4.20;;
68238;SDS011;55056;47.792;8.724;2022-10-18T07:33:17;7.75;;;4.00;;
68238;SDS011;55056;47.792;8.724;2022-10-18T07:35:44;6.82;;;4.07;;
68238;SDS011;55056;47.792;8.724;2022-10-18T07:38:10;7.70;;;4.00;;
68238;SDS011;55056;47.792;8.724;2022-10-18T07:40:35;6.63;;;3.57;;
68238;SDS011;55056;47.792;8.724;2022-10-18T07:43:01;8.53;;;4.07;;
68238;SDS011;55056;47.792;8.724;2022-10-18T07:45:27;6.88;;;4.03;;
68238;SDS011;55056;47.792;8.724;2022-10-18T07:47:53;6.73;;;3.60;;
68238;SDS011;55056;47.792;8.724;2022-10-18T07:50:25;6.68;;;3.95;;
68238;SDS011;55056;47.792;8.724;2022-10-18T07:52:51;7.50;;;3.70;;
68238;SDS011;55056;47.792;8.724;2022-10-18T07:55:16;6.17;;;3.90;;
68238;SDS011;55056;47.792;8.724;2022-10-18T07:57:42;7.30;;;3.60;;
68238;SDS011;55056;47.792;8.724;2022-10-18T08:00:07;7.18;;;3.70;;
68238;SDS011;55056;47.792;8.724;2022-10-18T08:02:36;7.32;;;3.72;;
68238;SDS011;55056;47.792;8.724;2022-10-18T08:05:02;6.50;;;3.60;;
68238;SDS011;55056;47.792;8.724;2022-10-18T08:07:27;8.73;;;3.90;;
68238;SDS011;55056;47.792;8.724;2022-10-18T08:09:53;8.23;;;4.20;;
68238;SDS011;55056;47.792;8.724;2022-10-18T08:12:18;8.87;;;4.23;;
68238;SDS011;55056;47.792;8.724;2022-10-18T08:14:43;8.70;;;4.20;;
68238;SDS011;55056;47.792;8.724;2022-10-18T08:17:09;9.70;;;4.30;;
68238;SDS011;55056;47.792;8.724;2022-10-18T08:19:37;7.97;;;3.97;;
68238;SDS011;55056;47.792;8.724;2022-10-18T08:22:03;7.03;;;3.90;;
68238;SDS011;55056;47.792;8.724;2022-10-18T08:24:28;9.07;;;3.90;;
68238;SDS011;55056;47.792;8.724;2022-10-18T08:26:53;8.10;;;3.70;;
68238;SDS011;55056;47.792;8.724;2022-10-18T08:29:19;7.50;;;3.80;;
68238;SDS011;55056;47.792;8.724;2022-10-18T08:31:44;8.87;;;4.23;;
68238;SDS011;55056;47.792;8.724;2022-10-18T08:34:11;8.93;;;4.10;;
68238;SDS011;55056;47.792;8.724;2022-10-18T08:36:36;9.70;;;4.10;;
68238;SDS011;55056;47.792;8.724;2022-10-18T08:39:02;10.83;;;4.33;;
68238;SDS011;55056;47.792;8.724;2022-10-18T08:44:04;8.00;;;3.97;;
68238;SDS011;55056;47.792;8.724;2022-10-18T08:46:31;7.03;;;3.88;;
68238;SDS011;55056;47.792;8.724;2022-10-18T08:48:57;7.20;;;4.07;;
68238;SDS011;55056;47.792;8.724;2022-10-18T08:54:00;10.40;;;4.70;;
68238;SDS011;55056;47.792;8.724;2022-10-18T08:56:26;7.63;;;4.50;;
68238;SDS011;55056;47.792;8.724;2022-10-18T08:58:53;6.95;;;4.20;;
68238;SDS011;55056;47.792;8.724;2022-10-18T09:01:37;8.10;;;4.20;;
68238;SDS011;55056;47.792;8.724;2022-10-18T09:09:31;8.15;;;3.70;;
68238;SDS011;55056;47.792;8.724;2022-10-18T09:14:50;7.50;;;3.95;;
68238;SDS011;55056;47.792;8.724;2022-10-18T09:20:09;8.47;;;3.90;;
68238;SDS011;55056;47.792;8.724;2022-10-18T09:27:53;6.13;;;3.70;;
68238;SDS011;55056;47.792;8.724;2022-10-18T09:32:49;7.63;;;3.63;;
68238;SDS011;55056;47.792;8.724;2022-10-18T09:35:17;9.20;;;3.77;;
68238;SDS011;55056;47.792;8.724;2022-10-18T09:37:44;8.38;;;3.70;;
68238;SDS011;55056;47.792;8.724;2022-10-18T09:40:17;8.50;;;4.00;;
68238;SDS011;55056;47.792;8.724;2022-10-18T09:43:06;7.27;;;3.60;;
68238;SDS011;55056;47.792;8.724;2022-10-18T09:45:32;6.65;;;3.50;;
68238;SDS011;55056;47.792;8.724;2022-10-18T09:55:46;7.77;;;3.50;;
68238;SDS011;55056;47.792;8.724;2022-10-18T09:58:16;6.50;;;3.27;;
68238;SDS011;55056;47.792;8.724;2022-10-18T10:00:45;8.48;;;3.40;;
68238;SDS011;55056;47.792;8.724;2022-10-18T10:03:12;7.53;;;3.40;;
68238;SDS011;55056;47.792;8.724;2022-10-18T10:05:39;6.00;;;3.50;;
68238;SDS011;55056;47.792;8.724;2022-10-18T10:08:05;6.60;;;3.60;;
68238;SDS011;55056;47.792;8.724;2022-10-18T10:10:31;8.90;;;3.30;;
68238;SDS011;55056;47.792;8.724;2022-10-18T10:13:16;6.53;;;3.00;;
68238;SDS011;55056;47.792;8.724;2022-10-18T10:15:53;6.75;;;3.58;;
68238;SDS011;55056;47.792;8.724;2022-10-18T10:18:21;6.40;;;3.40;;
68238;SDS011;55056;47.792;8.724;2022-10-18T10:20:51;7.70;;;3.10;;
68238;SDS011;55056;47.792;8.724;2022-10-18T10:23:24;5.80;;;3.20;;
68238;SDS011;55056;47.792;8.724;2022-10-18T10:25:52;5.97;;;2.95;;
68238;SDS011;55056;47.792;8.724;2022-10-18T10:28:19;7.23;;;3.50;;
68238;SDS011;55056;47.792;8.724;2022-10-18T10:30:45;7.32;;;3.20;;
68238;SDS011;55056;47.792;8.724;2022-10-18T10:33:30;7.47;;;3.40;;
68238;SDS011;55056;47.792;8.724;2022-10-18T10:36:01;5.88;;;2.83;;
68238;SDS011;55056;47.792;8.724;2022-10-18T10:38:28;6.85;;;3.20;;
68238;SDS011;55056;47.792;8.724;2022-10-18T10:40:54;7.75;;;3.10;;
68238;SDS011;55056;47.792;8.724;2022-10-18T10:43:24;6.75;;;3.17;;
68238;SDS011;55056;47.792;8.724;2022-10-18T10:48:22;6.07;;;3.05;;
68238;SDS011;55056;47.792;8.724;2022-10-18T10:50:49;6.53;;;3.10;;
68238;SDS011;55056;47.792;8.724;2022-10-18T10:53:33;5.83;;;3.10;;
68238;SDS011;55056;47.792;8.724;2022-10-18T10:56:01;5.80;;;3.20;;
68238;SDS011;55056;47.792;8.724;2022-10-18T10:58:34;5.43;;;3.10;;
68238;SDS011;55056;47.792;8.724;2022-10-18T11:03:52;7.50;;;3.03;;
68238;SDS011;55056;47.792;8.724;2022-10-18T11:09:04;5.67;;;2.90;;
68238;SDS011;55056;47.792;8.724;2022-10-18T11:11:41;8.40;;;2.80;;
68238;SDS011;55056;47.792;8.724;2022-10-18T11:14:20;7.15;;;3.30;;
68238;SDS011;55056;47.792;8.724;2022-10-18T11:16:50;7.75;;;3.30;;
68238;SDS011;55056;47.792;8.724;2022-10-18T11:19:36;8.77;;;3.03;;
68238;SDS011;55056;47.792;8.724;2022-10-18T11:22:08;6.47;;;2.90;;
68238;SDS011;55056;47.792;8.724;2022-10-18T11:24:37;7.68;;;2.90;;
68238;SDS011;55056;47.792;8.724;2022-10-18T11:43:03;8.20;;;3.60;;
68238;SDS011;55056;47.792;8.724;2022-10-18T11:45:45;8.32;;;4.55;;
68238;SDS011;55056;47.792;8.724;2022-10-18T11:53:24;10.27;;;4.27;;
68238;SDS011;55056;47.792;8.724;2022-10-18T11:58:56;7.65;;;3.60;;
68238;SDS011;55056;47.792;8.724;2022-10-18T12:03:57;8.35;;;3.60;;
68238;SDS011;55056;47.792;8.724;2022-10-18T12:06:27;7.13;;;3.30;;
68238;SDS011;55056;47.792;8.724;2022-10-18T12:08:56;8.00;;;3.20;;
68238;SDS011;55056;47.792;8.724;2022-10-18T12:11:30;8.15;;;3.30;;
68238;SDS011;55056;47.792;8.724;2022-10-18T12:13:58;6.10;;;3.30;;
68238;SDS011;55056;47.792;8.724;2022-10-18T12:16:26;6.80;;;3.28;;
68238;SDS011;55056;47.792;8.724;2022-10-18T12:19:00;8.38;;;3.20;;
68238;SDS011;55056;47.792;8.724;2022-10-18T12:21:28;6.55;;;3.10;;
68238;SDS011;55056;47.792;8.724;2022-10-18T12:24:02;6.25;;;3.08;;
68238;SDS011;55056;47.792;8.724;2022-10-18T12:26:29;6.00;;;2.90;;
68238;SDS011;55056;47.792;8.724;2022-10-18T12:29:19;5.30;;;2.83;;
68238;SDS011;55056;47.792;8.724;2022-10-18T12:31:50;8.00;;;3.10;;
68238;SDS011;55056;47.792;8.724;2022-10-18T12:36:52;5.95;;;2.85;;
68238;SDS011;55056;47.792;8.724;2022-10-18T12:39:28;5.78;;;2.80;;
68238;SDS011;55056;47.792;8.724;2022-10-18T12:41:56;6.05;;;3.00;;
68238;SDS011;55056;47.792;8.724;2022-10-18T12:44:31;6.43;;;2.80;;
68238;SDS011;55056;47.792;8.724;2022-10-18T12:46:58;7.15;;;2.80;;
68238;SDS011;55056;47.792;8.724;2022-10-18T12:49:26;6.00;;;2.57;;
68238;SDS011;55056;47.792;8.724;2022-10-18T12:51:53;5.45;;;2.70;;
68238;SDS011;55056;47.792;8.724;2022-10-18T12:54:21;7.43;;;2.53;;
68238;SDS011;55056;47.792;8.724;2022-10-18T12:56:48;6.75;;;2.80;;
68238;SDS011;55056;47.792;8.724;2022-10-18T13:09:38;7.18;;;2.80;;
68238;SDS011;55056;47.792;8.724;2022-10-18T13:38:42;7.97;;;3.00;;
68238;SDS011;55056;47.792;8.724;2022-10-18T13:41:01;7.22;;;2.70;;
68238;SDS011;55056;47.792;8.724;2022-10-18T13:46:11;10.55;;;2.85;;
68238;SDS011;55056;47.792;8.724;2022-10-18T13:56:39;6.10;;;2.60;;
68238;SDS011;55056;47.792;8.724;2022-10-18T14:04:20;7.85;;;2.70;;
68238;SDS011;55056;47.792;8.724;2022-10-18T14:06:51;7.97;;;2.60;;
68238;SDS011;55056;47.792;8.724;2022-10-18T14:09:20;6.27;;;2.90;;
68238;SDS011;55056;47.792;8.724;2022-10-18T14:14:45;7.13;;;2.65;;
68238;SDS011;55056;47.792;8.724;2022-10-18T14:19:45;6.13;;;2.70;;
68238;SDS011;55056;47.792;8.724;2022-10-18T14:25:15;5.47;;;2.72;;
68238;SDS011;55056;47.792;8.724;2022-10-18T14:27:42;7.30;;;2.80;;
68238;SDS011;55056;47.792;8.724;2022-10-18T14:30:14;6.43;;;2.60;;
68238;SDS011;55056;47.792;8.724;2022-10-18T14:32:47;6.50;;;2.60;;
68238;SDS011;55056;47.792;8.724;2022-10-18T14:35:38;6.80;;;2.50;;
68238;SDS011;55056;47.792;8.724;2022-10-18T14:38:11;6.28;;;2.47;;
68238;SDS011;55056;47.792;8.724;2022-10-18T14:40:40;6.10;;;2.55;;
68238;SDS011;55056;47.792;8.724;2022-10-18T14:45:30;6.97;;;2.80;;
68238;SDS011;55056;47.792;8.724;2022-10-18T14:48:04;7.43;;;2.80;;
68238;SDS011;55056;47.792;8.724;2022-10-18T14:50:30;6.70;;;2.90;;
68238;SDS011;55056;47.792;8.724;2022-10-18T14:52:55;8.33;;;3.50;;
68238;SDS011;55056;47.792;8.724;2022-10-18T14:55:25;7.70;;;3.33;;
68238;SDS011;55056;47.792;8.724;2022-10-18T14:57:52;7.25;;;3.72;;
68238;SDS011;55056;47.792;8.724;2022-10-18T15:03:13;7.30;;;3.45;;
68238;SDS011;55056;47.792;8.724;2022-10-18T15:05:58;7.00;;;3.20;;
68238;SDS011;55056;47.792;8.724;2022-10-18T15:08:34;7.93;;;3.47;;
68238;SDS011;55056;47.792;8.724;2022-10-18T15:11:00;6.85;;;3.20;;
68238;SDS011;55056;47.792;8.724;2022-10-18T15:13:26;6.23;;;3.20;;
68238;SDS011;55056;47.792;8.724;2022-10-18T15:15:52;7.33;;;3.40;;
68238;SDS011;55056;47.792;8.724;2022-10-18T15:18:20;7.13;;;3.38;;
68238;SDS011;55056;47.792;8.724;2022-10-18T15:20:46;6.47;;;3.20;;
68238;SDS011;55056;47.792;8.724;2022-10-18T15:23:30;7.43;;;3.13;;
68238;SDS011;55056;47.792;8.724;2022-10-18T15:26:14;6.27;;;3.13;;
68238;SDS011;55056;47.792;8.724;2022-10-18T15:28:45;6.75;;;3.13;;
68238;SDS011;55056;47.792;8.724;2022-10-18T15:31:25;6.70;;;3.28;;
68238;SDS011;55056;47.792;8.724;2022-10-18T15:33:51;5.55;;;3.20;;
68238;SDS011;55056;47.792;8.724;2022-10-18T15:36:26;5.55;;;2.92;;
68238;SDS011;55056;47.792;8.724;2022-10-18T15:39:02;5.28;;;2.88;;
68238;SDS011;55056;47.792;8.724;2022-10-18T15:41:38;6.20;;;2.87;;
68238;SDS011;55056;47.792;8.724;2022-10-18T15:46:51;6.55;;;2.80;;
68238;SDS011;55056;47.792;8.724;2022-10-18T15:51:49;6.30;;;2.92;;
68238;SDS011;55056;47.792;8.724;2022-10-18T15:54:18;6.93;;;2.70;;
68238;SDS011;55056;47.792;8.724;2022-10-18T15:56:44;7.05;;;2.65;;
68238;SDS011;55056;47.792;8.724;2022-10-18T15:59:27;8.67;;;2.70;;
68238;SDS011;55056;47.792;8.724;2022-10-18T16:01:55;6.78;;;2.42;;
68238;SDS011;55056;47.792;8.724;2022-10-18T16:04:27;6.87;;;2.47;;
68238;SDS011;55056;47.792;8.724;2022-10-18T16:06:53;8.13;;;2.63;;
68238;SDS011;55056;47.792;8.724;2022-10-18T16:09:20;10.02;;;2.70;;
68238;SDS011;55056;47.792;8.724;2022-10-18T16:11:46;8.25;;;2.70;;
68238;SDS011;55056;47.792;8.724;2022-10-18T16:14:13;11.25;;;4.90;;
68238;SDS011;55056;47.792;8.724;2022-10-18T16:16:39;12.73;;;6.77;;
68238;SDS011;55056;47.792;8.724;2022-10-18T16:19:04;9.20;;;4.70;;
68238;SDS011;55056;47.792;8.724;2022-10-18T16:21:31;7.37;;;3.70;;
68238;SDS011;55056;47.792;8.724;2022-10-18T16:23:57;7.03;;;3.00;;
68238;SDS011;55056;47.792;8.724;2022-10-18T16:26:22;7.17;;;3.20;;
68238;SDS011;55056;47.792;8.724;2022-10-18T16:28:48;6.93;;;3.27;;
68238;SDS011;55056;47.792;8.724;2022-10-18T16:31:24;6.90;;;3.20;;
68238;SDS011;55056;47.792;8.724;2022-10-18T16:33:51;6.72;;;3.40;;
68238;SDS011;55056;47.792;8.724;2022-10-18T16:36:18;7.30;;;3.22;;
68238;SDS011;55056;47.792;8.724;2022-10-18T16:38:44;9.77;;;4.07;;
68238;SDS011;55056;47.792;8.724;2022-10-18T16:41:10;8.55;;;3.80;;
68238;SDS011;55056;47.792;8.724;2022-10-18T16:43:37;9.13;;;3.90;;
68238;SDS011;55056;47.792;8.724;2022-10-18T16:46:04;9.88;;;4.20;;
68238;SDS011;55056;47.792;8.724;2022-10-18T16:48:30;9.02;;;4.30;;
68238;SDS011;55056;47.792;8.724;2022-10-18T16:50:55;11.17;;;4.63;;
68238;SDS011;55056;47.792;8.724;2022-10-18T16:53:21;9.67;;;4.10;;
68238;SDS011;55056;47.792;8.724;2022-10-18T16:55:52;10.35;;;4.03;;
68238;SDS011;55056;47.792;8.724;2022-10-18T16:58:18;10.05;;;3.95;;
68238;SDS011;55056;47.792;8.724;2022-10-18T17:00:44;8.53;;;3.90;;
68238;SDS011;55056;47.792;8.724;2022-10-18T17:03:11;8.23;;;3.70;;
68238;SDS011;55056;47.792;8.724;2022-10-18T17:05:38;9.13;;;3.92;;
68238;SDS011;55056;47.792;8.724;2022-10-18T17:08:04;8.35;;;3.90;;
68238;SDS011;55056;47.792;8.724;2022-10-18T17:10:30;8.03;;;3.80;;
68238;SDS011;55056;47.792;8.724;2022-10-18T17:12:55;8.03;;;3.63;;
68238;SDS011;55056;47.792;8.724;2022-10-18T17:15:27;8.13;;;3.70;;
68238;SDS011;55056;47.792;8.724;2022-10-18T17:17:52;7.77;;;3.67;;
68238;SDS011;55056;47.792;8.724;2022-10-18T17:20:19;7.63;;;3.53;;
68238;SDS011;55056;47.792;8.724;2022-10-18T17:22:46;7.68;;;3.40;;
68238;SDS011;55056;47.792;8.724;2022-10-18T17:25:11;7.93;;;3.33;;
68238;SDS011;55056;47.792;8.724;2022-10-18T17:27:37;7.60;;;3.50;;
68238;SDS011;55056;47.792;8.724;2022-10-18T17:30:04;9.20;;;3.43;;
68238;SDS011;55056;47.792;8.724;2022-10-18T17:32:33;8.57;;;3.58;;
68238;SDS011;55056;47.792;8.724;2022-10-18T17:34:59;7.30;;;3.40;;